Time;durP1;ratioP1;P1;durP2;ratioP2;P2;SDS_P1;SDS_P2;PMS_P1;PMS_P2;Temp;Humidity;BMP_temperature;BMP_pressure;BME280_temperature;BME280_humidity;BME280_pressure;Samples;Min_cycle;Max_cycle;Signal;HPM_P1;HPM_P2
2023/11/03 00:00:34;;;;;;;5.07;1.73;;;14.80;66.50;;;;;;4855225;29;20050;-90
2023/11/03 00:03:05;;;;;;;4.53;1.55;;;14.70;66.40;;;;;;4855224;29;20420;-90
2023/11/03 00:05:35;;;;;;;4.22;1.42;;;14.70;66.60;;;;;;4839659;29;20050;-90
2023/11/03 00:08:03;;;;;;;5.63;1.75;;;14.70;66.70;;;;;;4854768;29;20081;-91
2023/11/03 00:10:31;;;;;;;4.90;1.70;;;14.70;66.40;;;;;;4839880;29;20141;-91
2023/11/03 00:12:59;;;;;;;5.93;2.10;;;14.70;66.40;;;;;;4855825;29;20062;-89
2023/11/03 00:15:27;;;;;;;6.20;2.17;;;14.70;66.60;;;;;;4838417;29;20047;-89
2023/11/03 00:17:54;;;;;;;6.50;1.80;;;14.70;66.40;;;;;;4841236;29;20497;-91
2023/11/03 00:20:21;;;;;;;5.20;1.60;;;14.70;66.70;;;;;;4842878;29;20046;-90
2023/11/03 00:22:48;;;;;;;5.55;1.77;;;14.70;66.30;;;;;;4842169;29;20050;-90
2023/11/03 00:25:16;;;;;;;4.50;1.60;;;14.80;66.30;;;;;;4843179;29;20049;-89
2023/11/03 00:27:46;;;;;;;6.18;1.80;;;14.70;66.50;;;;;;4843733;29;20057;-90
2023/11/03 00:30:14;;;;;;;4.75;1.95;;;14.80;66.50;;;;;;4857973;29;20042;-90
2023/11/03 00:32:41;;;;;;;6.50;2.28;;;14.80;66.50;;;;;;4842466;29;20049;-90
2023/11/03 00:35:09;;;;;;;6.32;1.85;;;14.80;66.50;;;;;;4857613;29;20493;-90
2023/11/03 00:37:38;;;;;;;6.30;1.80;;;14.80;66.40;;;;;;4841906;29;20054;-89
2023/11/03 00:40:11;;;;;;;6.57;1.88;;;14.80;66.50;;;;;;4857447;29;20128;-90
2023/11/03 00:42:39;;;;;;;4.13;1.48;;;14.70;66.40;;;;;;4842254;29;20042;-90
2023/11/03 00:45:07;;;;;;;3.97;1.38;;;14.70;66.70;;;;;;4857526;29;20053;-90
2023/11/03 00:47:34;;;;;;;4.32;1.40;;;14.80;66.70;;;;;;4843415;29;20066;-90
2023/11/03 00:50:02;;;;;;;4.43;1.40;;;14.80;66.40;;;;;;4841054;29;20050;-89
2023/11/03 00:52:29;;;;;;;7.28;1.45;;;14.90;66.30;;;;;;4857519;29;20527;-90
2023/11/03 00:54:56;;;;;;;4.32;1.42;;;14.90;66.30;;;;;;4857109;29;20045;-88
2023/11/03 00:57:23;;;;;;;5.30;1.50;;;14.90;66.40;;;;;;4842347;29;20057;-90
2023/11/03 00:59:50;;;;;;;5.00;1.30;;;14.90;66.20;;;;;;4841979;29;20110;-90
2023/11/03 01:02:17;;;;;;;6.37;1.80;;;14.90;66.40;;;;;;4842063;29;20507;-90
2023/11/03 01:04:45;;;;;;;5.07;1.70;;;14.90;66.40;;;;;;4856114;29;20058;-91
2023/11/03 01:07:13;;;;;;;7.38;1.50;;;14.90;66.30;;;;;;4842211;29;20038;-91
2023/11/03 01:09:41;;;;;;;8.40;3.13;;;14.90;66.60;;;;;;4842118;29;20410;-90
2023/11/03 01:12:08;;;;;;;8.18;2.75;;;14.90;66.60;;;;;;4842163;29;20446;-91
2023/11/03 01:14:36;;;;;;;8.73;3.47;;;14.90;66.40;;;;;;4857401;29;20046;-91
2023/11/03 01:17:05;;;;;;;10.30;4.60;;;14.90;66.80;;;;;;4840754;29;20050;-90
2023/11/03 01:19:32;;;;;;;7.55;2.80;;;14.90;66.40;;;;;;4857346;29;20046;-90
2023/11/03 01:21:59;;;;;;;6.63;2.40;;;14.90;66.70;;;;;;4842136;29;20057;-90
2023/11/03 01:24:27;;;;;;;6.88;1.90;;;14.90;66.60;;;;;;4857731;29;20046;-90
2023/11/03 01:26:54;;;;;;;7.53;2.10;;;14.90;66.80;;;;;;4841245;29;20493;-90
2023/11/03 01:29:21;;;;;;;4.55;1.50;;;15.00;66.70;;;;;;4840832;29;20046;-90
2023/11/03 01:31:48;;;;;;;4.65;1.60;;;15.00;66.90;;;;;;4857046;29;20056;-90
2023/11/03 01:34:16;;;;;;;5.97;1.40;;;15.00;66.60;;;;;;4841620;29;20081;-90
2023/11/03 01:36:43;;;;;;;5.03;1.85;;;14.90;66.90;;;;;;4858264;29;20141;-90
2023/11/03 01:39:10;;;;;;;6.27;1.43;;;14.90;66.90;;;;;;4841265;29;20060;-90
2023/11/03 01:41:37;;;;;;;4.28;1.20;;;14.90;66.80;;;;;;4841976;29;20095;-90
2023/11/03 01:44:11;;;;;;;4.03;1.15;;;14.90;66.70;;;;;;4826375;29;20045;-90
2023/11/03 01:46:40;;;;;;;4.28;1.00;;;14.90;66.80;;;;;;4856891;29;20061;-90
2023/11/03 01:49:08;;;;;;;5.22;1.50;;;14.90;66.70;;;;;;4842160;29;20041;-90
2023/11/03 01:51:37;;;;;;;4.03;1.27;;;14.80;66.40;;;;;;4840158;29;20641;-90
2023/11/03 01:54:05;;;;;;;5.65;1.73;;;14.80;66.10;;;;;;4841425;29;20042;-90
2023/11/03 01:56:35;;;;;;;6.32;1.40;;;14.90;66.10;;;;;;4856306;29;20046;-90
2023/11/03 01:59:04;;;;;;;5.43;1.23;;;14.90;65.70;;;;;;4841452;29;20446;-90
2023/11/03 02:01:32;;;;;;;4.72;0.98;;;14.90;65.50;;;;;;4847416;29;20041;-90
2023/11/03 02:03:59;;;;;;;9.60;1.50;;;14.90;65.10;;;;;;4840657;29;20042;-90
2023/11/03 02:06:27;;;;;;;7.35;1.20;;;15.00;65.10;;;;;;4840996;29;20497;-90
2023/11/03 02:08:54;;;;;;;4.22;0.85;;;15.00;65.00;;;;;;4839627;29;20042;-90
2023/11/03 02:11:30;;;;;;;6.07;1.02;;;15.00;64.70;;;;;;4841561;29;20045;-89
2023/11/03 02:13:58;;;;;;;3.80;1.10;;;15.00;64.60;;;;;;4840091;29;20053;-88
2023/11/03 02:16:27;;;;;;;6.40;1.37;;;15.00;64.40;;;;;;4855163;29;20046;-90
2023/11/03 02:18:54;;;;;;;3.92;1.23;;;15.00;64.30;;;;;;4840772;29;20089;-90
2023/11/03 02:21:21;;;;;;;7.18;1.80;;;15.00;64.10;;;;;;4855977;29;20395;-90
2023/11/03 02:23:48;;;;;;;9.35;1.60;;;15.10;64.50;;;;;;4841509;29;20060;-90
2023/11/03 02:26:15;;;;;;;7.28;2.20;;;15.10;64.30;;;;;;4840725;29;20077;-90
2023/11/03 02:28:42;;;;;;;8.77;1.97;;;15.10;64.50;;;;;;4855863;29;20085;-90
2023/11/03 02:31:09;;;;;;;7.63;2.03;;;15.00;64.70;;;;;;4840974;29;20045;-90
2023/11/03 02:33:37;;;;;;;7.63;2.65;;;15.00;64.90;;;;;;4855736;29;20501;-90
2023/11/03 02:36:05;;;;;;;6.68;1.65;;;15.10;65.30;;;;;;4840874;29;20078;-90
2023/11/03 02:38:32;;;;;;;6.53;1.40;;;15.00;65.00;;;;;;4855873;29;20065;-90
2023/11/03 02:40:59;;;;;;;7.20;1.17;;;15.10;65.10;;;;;;4839822;29;20493;-90
2023/11/03 02:43:26;;;;;;;14.48;1.17;;;15.10;65.20;;;;;;4824891;29;20418;-90
2023/11/03 02:45:53;;;;;;;5.05;1.10;;;15.10;66.70;;;;;;4855493;29;20049;-90
2023/11/03 02:48:20;;;;;;;6.47;1.50;;;15.00;67.30;;;;;;4840842;29;20397;-90
2023/11/03 02:50:47;;;;;;;4.90;1.38;;;15.00;67.50;;;;;;4840359;29;20050;-91
2023/11/03 02:53:14;;;;;;;6.93;1.60;;;14.90;66.80;;;;;;4855237;29;20072;-90
2023/11/03 02:55:41;;;;;;;7.20;1.77;;;14.90;67.30;;;;;;4840734;29;20126;-91
2023/11/03 02:58:08;;;;;;;7.22;1.52;;;14.90;67.50;;;;;;4856460;29;20045;-90
2023/11/03 03:00:36;;;;;;;6.40;1.50;;;15.00;67.50;;;;;;4839704;29;20243;-90
2023/11/03 03:03:05;;;;;;;7.28;2.13;;;15.00;67.60;;;;;;4840078;29;20050;-91
2023/11/03 03:05:33;;;;;;;7.70;1.90;;;14.90;67.30;;;;;;4846987;29;20057;-91
2023/11/03 03:08:01;;;;;;;6.15;1.20;;;14.90;67.80;;;;;;4840117;29;20046;-90
2023/11/03 03:10:28;;;;;;;7.03;1.40;;;14.90;68.20;;;;;;4855676;29;20053;-90
2023/11/03 03:12:56;;;;;;;5.80;1.23;;;14.90;68.40;;;;;;4840543;29;20045;-91
2023/11/03 03:15:23;;;;;;;5.60;1.40;;;14.80;68.70;;;;;;4840365;29;20411;-91
2023/11/03 03:17:50;;;;;;;7.53;1.60;;;14.80;69.00;;;;;;4841110;29;20081;-90
2023/11/03 03:20:18;;;;;;;6.32;1.40;;;14.80;69.20;;;;;;4840338;29;20049;-91
2023/11/03 03:22:45;;;;;;;5.70;1.10;;;14.70;69.10;;;;;;4841643;29;20182;-90
2023/11/03 03:25:12;;;;;;;5.35;1.10;;;14.80;69.40;;;;;;4840282;29;20053;-90
2023/11/03 03:27:39;;;;;;;3.60;1.15;;;14.70;69.50;;;;;;4840138;29;20500;-91
2023/11/03 03:30:07;;;;;;;2.77;0.60;;;14.70;69.50;;;;;;4853449;29;20095;-90
2023/11/03 03:32:34;;;;;;;4.15;0.80;;;14.70;69.70;;;;;;4840702;29;20057;-90
2023/11/03 03:35:01;;;;;;;2.92;0.70;;;14.60;70.20;;;;;;4855117;29;20038;-89
2023/11/03 03:37:28;;;;;;;2.47;0.77;;;14.50;70.70;;;;;;4855912;29;20102;-90
2023/11/03 03:39:56;;;;;;;2.38;0.80;;;14.40;71.00;;;;;;4840181;29;20098;-90
2023/11/03 03:42:26;;;;;;;2.77;0.83;;;14.40;71.30;;;;;;4854850;29;20050;-90
2023/11/03 03:44:53;;;;;;;2.75;0.60;;;14.40;71.30;;;;;;4841260;29;20050;-90
2023/11/03 03:47:20;;;;;;;2.63;0.60;;;14.40;71.50;;;;;;4855756;29;20050;-91
2023/11/03 03:49:47;;;;;;;1.65;0.50;;;14.40;71.50;;;;;;4854197;29;20050;-91
2023/11/03 03:52:14;;;;;;;1.40;0.40;;;14.40;71.60;;;;;;4842059;29;20485;-91
2023/11/03 03:54:41;;;;;;;1.77;0.60;;;14.30;71.60;;;;;;4845019;29;20046;-90
2023/11/03 03:57:08;;;;;;;3.15;0.80;;;14.40;71.60;;;;;;4859118;29;20128;-90
2023/11/03 03:59:35;;;;;;;1.95;0.50;;;14.30;71.60;;;;;;4859285;29;20537;-90
2023/11/03 04:02:02;;;;;;;4.88;0.80;;;14.40;71.40;;;;;;4858902;29;20066;-90
2023/11/03 04:04:29;;;;;;;2.83;0.60;;;14.40;71.10;;;;;;4858396;29;20141;-91
2023/11/03 04:06:57;;;;;;;1.40;0.60;;;14.50;71.20;;;;;;4859888;29;20053;-91
2023/11/03 04:09:25;;;;;;;2.80;0.50;;;14.50;71.10;;;;;;4844101;29;20071;-91
2023/11/03 04:11:52;;;;;;;2.33;0.70;;;14.50;70.80;;;;;;4843892;29;20094;-91
2023/11/03 04:14:19;;;;;;;2.33;0.52;;;14.50;70.40;;;;;;4858506;29;20133;-90
2023/11/03 04:16:46;;;;;;;3.92;0.90;;;14.60;70.00;;;;;;4844094;29;20481;-91
2023/11/03 04:19:13;;;;;;;2.37;0.70;;;14.60;70.00;;;;;;4843984;29;20053;-91
2023/11/03 04:21:43;;;;;;;4.40;1.45;;;14.70;70.00;;;;;;4842918;29;20057;-91
2023/11/03 04:24:10;;;;;;;3.25;1.00;;;14.60;70.00;;;;;;4853472;29;20050;-91
2023/11/03 04:26:39;;;;;;;7.00;2.42;;;14.70;70.10;;;;;;4828275;29;20061;-91
2023/11/03 04:29:06;;;;;;;7.22;2.72;;;14.70;70.00;;;;;;4858243;29;20114;-91
2023/11/03 04:31:34;;;;;;;4.67;1.70;;;14.70;69.90;;;;;;4843527;29;20446;-91
2023/11/03 04:34:01;;;;;;;5.38;1.77;;;14.70;69.70;;;;;;4859252;29;20382;-91
2023/11/03 04:36:29;;;;;;;4.45;1.20;;;14.80;69.60;;;;;;4849740;29;20046;-91
2023/11/03 04:38:56;;;;;;;4.00;1.30;;;14.70;69.70;;;;;;4822838;29;20049;-90
2023/11/03 04:41:23;;;;;;;4.45;1.25;;;14.70;69.90;;;;;;4849926;29;20102;-91
2023/11/03 04:43:50;;;;;;;2.67;1.00;;;14.70;69.90;;;;;;4858190;29;20064;-91
2023/11/03 04:46:17;;;;;;;3.38;1.35;;;14.70;69.70;;;;;;4858334;29;20053;-91
2023/11/03 04:48:45;;;;;;;2.92;1.30;;;14.80;69.60;;;;;;4858099;29;20046;-91
2023/11/03 04:51:13;;;;;;;4.30;1.45;;;14.80;69.60;;;;;;4842943;29;20038;-91
2023/11/03 04:53:41;;;;;;;2.83;1.27;;;14.80;69.90;;;;;;4844097;29;20045;-91
2023/11/03 04:56:08;;;;;;;4.10;1.50;;;14.80;69.50;;;;;;4857854;29;20046;-91
2023/11/03 04:58:36;;;;;;;5.55;1.45;;;14.80;69.60;;;;;;4858123;29;20050;-92
2023/11/03 05:01:03;;;;;;;3.58;1.42;;;14.80;69.70;;;;;;4847783;29;21082;-85
2023/11/03 05:03:31;;;;;;;3.53;1.50;;;14.80;69.50;;;;;;4842763;29;20493;-91
2023/11/03 05:05:59;;;;;;;3.45;1.70;;;14.90;69.20;;;;;;4841841;29;20054;-90
2023/11/03 05:08:26;;;;;;;7.17;1.97;;;14.90;69.00;;;;;;4856225;29;20073;-90
2023/11/03 05:10:53;;;;;;;5.68;1.55;;;15.00;68.90;;;;;;4826128;29;20041;-90
2023/11/03 05:13:20;;;;;;;4.00;1.55;;;15.00;68.90;;;;;;4827116;29;20132;-90
2023/11/03 05:15:47;;;;;;;6.72;2.50;;;15.10;68.80;;;;;;4849230;29;20061;-93
2023/11/03 05:18:14;;;;;;;6.85;2.67;;;15.20;68.70;;;;;;4858967;29;20408;-93
2023/11/03 05:20:42;;;;;;;4.10;1.50;;;15.20;68.70;;;;;;4828796;29;20062;-93
2023/11/03 05:23:09;;;;;;;4.82;1.73;;;15.20;69.00;;;;;;4858861;29;20093;-93
2023/11/03 05:25:36;;;;;;;6.95;2.47;;;15.20;69.10;;;;;;4846626;29;20567;-93
2023/11/03 05:28:03;;;;;;;7.03;2.55;;;15.10;69.20;;;;;;4863503;29;20495;-93
2023/11/03 05:30:30;;;;;;;7.32;2.50;;;15.20;69.20;;;;;;4853555;29;20404;-93
2023/11/03 05:32:57;;;;;;;6.17;2.37;;;15.20;69.40;;;;;;4858296;29;20479;-92
2023/11/03 05:35:25;;;;;;;4.18;1.63;;;15.20;69.10;;;;;;4844116;29;20109;-93
2023/11/03 05:37:52;;;;;;;4.38;1.30;;;15.20;68.90;;;;;;4848787;29;20579;-93
2023/11/03 05:40:19;;;;;;;3.95;1.42;;;15.10;68.80;;;;;;4845032;29;20050;-93
2023/11/03 05:42:46;;;;;;;3.42;1.35;;;15.10;69.00;;;;;;4858834;29;20110;-94
2023/11/03 05:45:13;;;;;;;2.73;1.40;;;15.10;69.40;;;;;;4843755;29;20147;-93
2023/11/03 05:47:40;;;;;;;4.28;1.70;;;15.10;69.50;;;;;;4858812;29;20088;-93
2023/11/03 05:50:08;;;;;;;4.13;1.60;;;15.10;69.50;;;;;;4843686;29;20049;-94
2023/11/03 05:52:35;;;;;;;3.70;1.75;;;15.10;69.70;;;;;;4858757;29;20049;-93
2023/11/03 05:55:02;;;;;;;4.60;1.92;;;15.10;69.90;;;;;;4858551;29;20046;-93
2023/11/03 05:57:29;;;;;;;5.37;1.40;;;15.10;69.70;;;;;;4858959;29;20050;-93
2023/11/03 05:59:56;;;;;;;4.18;1.80;;;15.10;69.60;;;;;;4861601;29;20424;-93
2023/11/03 06:02:24;;;;;;;3.55;1.67;;;15.10;69.50;;;;;;4862040;29;20049;-93
2023/11/03 06:04:51;;;;;;;4.28;1.70;;;15.00;69.40;;;;;;4837463;29;20060;-92
2023/11/03 06:07:18;;;;;;;4.15;1.83;;;15.00;69.30;;;;;;4845939;29;20057;-93
2023/11/03 06:09:45;;;;;;;4.27;1.80;;;15.00;69.30;;;;;;4858343;29;20096;-93
2023/11/03 06:12:12;;;;;;;4.10;1.92;;;15.00;69.50;;;;;;4843290;29;20081;-93
2023/11/03 06:14:39;;;;;;;4.97;2.13;;;15.00;69.30;;;;;;4843649;29;20162;-93
2023/11/03 06:17:06;;;;;;;5.82;1.90;;;15.00;68.80;;;;;;4843422;29;20102;-94
2023/11/03 06:19:33;;;;;;;5.93;1.80;;;15.00;68.50;;;;;;4843265;29;20058;-94
2023/11/03 06:22:01;;;;;;;4.73;2.07;;;15.10;68.20;;;;;;4843250;29;20065;-93
2023/11/03 06:24:28;;;;;;;5.13;1.60;;;15.00;68.40;;;;;;4845415;29;20076;-93
2023/11/03 06:26:59;;;;;;;4.45;1.65;;;15.00;68.30;;;;;;4843283;29;20085;-94
2023/11/03 06:29:26;;;;;;;3.42;1.58;;;15.00;68.20;;;;;;4842934;29;20099;-93
2023/11/03 06:31:53;;;;;;;4.22;1.95;;;15.00;67.90;;;;;;4843014;29;20060;-93
2023/11/03 06:34:21;;;;;;;4.67;1.83;;;15.00;68.10;;;;;;4843240;29;20050;-93
2023/11/03 06:36:48;;;;;;;3.28;1.52;;;15.00;68.10;;;;;;4843066;29;20052;-94
2023/11/03 06:39:16;;;;;;;4.85;1.90;;;15.00;68.20;;;;;;4858052;29;20405;-94
2023/11/03 06:41:43;;;;;;;5.22;1.92;;;15.10;68.00;;;;;;4842728;29;20046;-94
2023/11/03 06:44:12;;;;;;;5.45;2.00;;;15.10;67.80;;;;;;4858025;29;20144;-94
2023/11/03 06:46:39;;;;;;;3.97;1.53;;;15.10;67.80;;;;;;4842824;29;20058;-94
2023/11/03 06:49:07;;;;;;;5.35;1.90;;;15.10;67.90;;;;;;4842646;29;20509;-94
2023/11/03 06:51:34;;;;;;;6.53;1.92;;;15.20;67.80;;;;;;4858159;29;20054;-94
2023/11/03 06:54:02;;;;;;;4.10;2.00;;;15.20;67.20;;;;;;4842892;29;20132;-94
2023/11/03 06:56:31;;;;;;;6.65;2.25;;;15.20;67.30;;;;;;4813027;29;20532;-94
2023/11/03 06:58:59;;;;;;;7.10;1.90;;;15.20;67.10;;;;;;4858217;29;20413;-94
2023/11/03 07:01:27;;;;;;;5.22;2.13;;;15.20;67.40;;;;;;4842952;29;20088;-94
2023/11/03 07:03:54;;;;;;;5.43;1.60;;;15.20;66.80;;;;;;4842755;29;20509;-94
2023/11/03 07:06:21;;;;;;;4.32;1.77;;;15.20;67.00;;;;;;4842715;29;20409;-93
2023/11/03 07:08:48;;;;;;;4.03;1.98;;;15.20;67.10;;;;;;4842731;29;20141;-94
2023/11/03 07:11:16;;;;;;;4.53;1.97;;;15.20;66.70;;;;;;4855133;29;20053;-93
2023/11/03 07:13:43;;;;;;;4.90;1.90;;;15.20;67.00;;;;;;4858215;29;20050;-94
2023/11/03 07:16:12;;;;;;;5.70;2.10;;;15.30;66.80;;;;;;4857880;29;20050;-93
2023/11/03 07:18:42;;;;;;;9.82;2.25;;;15.30;66.90;;;;;;4857820;29;20058;-94
2023/11/03 07:21:15;;;;;;;5.75;1.95;;;15.40;67.30;;;;;;4857354;29;20050;-94
2023/11/03 07:23:43;;;;;;;4.67;1.87;;;15.40;67.30;;;;;;4842647;29;20050;-94
2023/11/03 07:26:13;;;;;;;3.78;1.50;;;15.30;68.60;;;;;;4857684;29;20054;-94
2023/11/03 07:28:45;;;;;;;3.92;2.05;;;15.30;68.10;;;;;;4861358;29;20121;-94
2023/11/03 07:31:13;;;;;;;4.88;1.80;;;15.20;68.60;;;;;;4861221;29;20049;-94
2023/11/03 07:33:41;;;;;;;3.47;1.60;;;15.20;67.80;;;;;;4846142;29;20378;-94
2023/11/03 07:36:10;;;;;;;4.77;1.80;;;15.20;68.00;;;;;;4861368;29;20050;-94
2023/11/03 07:38:39;;;;;;;5.15;1.80;;;15.30;67.70;;;;;;4846093;29;20088;-94
2023/11/03 07:41:08;;;;;;;4.53;1.77;;;15.30;68.20;;;;;;4861239;29;20466;-94
2023/11/03 07:43:39;;;;;;;3.88;2.00;;;15.30;67.90;;;;;;4846098;29;20137;-94
2023/11/03 07:46:06;;;;;;;5.30;1.92;;;15.40;68.20;;;;;;4845942;29;20045;-94
2023/11/03 07:48:33;;;;;;;5.10;1.87;;;15.40;67.50;;;;;;4845833;29;20057;-93
2023/11/03 07:51:02;;;;;;;8.90;3.60;;;15.40;67.70;;;;;;4846075;29;20394;-94
2023/11/03 07:53:29;;;;;;;6.70;3.00;;;15.50;67.70;;;;;;4845743;29;20046;-94
2023/11/03 07:55:56;;;;;;;5.82;2.53;;;15.50;68.00;;;;;;4845741;29;20050;-94
2023/11/03 07:58:23;;;;;;;4.90;2.08;;;15.50;67.80;;;;;;4861233;29;20050;-94
2023/11/03 08:00:50;;;;;;;4.70;2.13;;;15.50;67.20;;;;;;4861192;29;20563;-94
2023/11/03 08:03:18;;;;;;;4.40;2.20;;;15.60;66.70;;;;;;4860841;29;20404;-94
2023/11/03 08:05:46;;;;;;;5.15;2.03;;;15.60;66.60;;;;;;4860811;29;20064;-94
2023/11/03 08:08:14;;;;;;;5.72;1.88;;;15.70;66.70;;;;;;4860607;29;20078;-94
2023/11/03 08:10:41;;;;;;;4.25;1.50;;;15.70;66.80;;;;;;4845368;29;20073;-94
2023/11/03 08:13:09;;;;;;;3.50;1.80;;;15.80;66.60;;;;;;4860889;29;20053;-94
2023/11/03 08:15:37;;;;;;;7.97;2.00;;;15.80;66.10;;;;;;4845564;29;20438;-94
2023/11/03 08:18:08;;;;;;;3.80;1.58;;;15.70;66.80;;;;;;4860756;29;20097;-94
2023/11/03 08:20:35;;;;;;;3.55;1.90;;;15.70;66.20;;;;;;4860969;29;20061;-94
2023/11/03 08:23:03;;;;;;;5.57;2.30;;;15.60;66.80;;;;;;4845456;29;20191;-94
2023/11/03 08:25:30;;;;;;;3.97;2.07;;;15.50;68.00;;;;;;4845146;29;20457;-93
2023/11/03 08:27:59;;;;;;;4.03;1.83;;;15.40;69.70;;;;;;4845126;29;20053;-94
2023/11/03 08:30:26;;;;;;;5.28;1.90;;;15.40;69.10;;;;;;4860459;29;20074;-94
2023/11/03 08:32:54;;;;;;;4.38;2.30;;;15.40;69.80;;;;;;4860500;29;20046;-94
2023/11/03 08:35:22;;;;;;;4.45;2.13;;;15.50;69.40;;;;;;4845198;29;20144;-94
2023/11/03 08:37:55;;;;;;;5.00;2.13;;;15.50;70.20;;;;;;4829411;29;20050;-94
2023/11/03 08:40:22;;;;;;;4.47;1.90;;;15.50;70.00;;;;;;4859786;29;20086;-94
2023/11/03 08:42:50;;;;;;;6.47;2.72;;;15.50;70.20;;;;;;4845147;29;20072;-95
2023/11/03 08:45:19;;;;;;;4.70;2.38;;;15.50;70.90;;;;;;4845218;29;20091;-94
2023/11/03 08:47:47;;;;;;;5.10;2.30;;;15.50;70.20;;;;;;4844974;29;20058;-94
2023/11/03 08:50:16;;;;;;;5.63;2.57;;;15.50;70.80;;;;;;4829383;29;20072;-94
2023/11/03 08:52:49;;;;;;;7.80;3.17;;;15.40;70.60;;;;;;4844572;29;20077;-94
2023/11/03 08:55:17;;;;;;;9.52;3.97;;;15.30;71.20;;;;;;4859904;29;20573;-93
2023/11/03 08:57:44;;;;;;;9.77;4.00;;;15.30;71.80;;;;;;4844622;29;20049;-94
2023/11/03 09:00:15;;;;;;;10.48;4.07;;;15.20;72.60;;;;;;4844762;29;20054;-94
2023/11/03 09:02:46;;;;;;;7.13;2.97;;;15.20;72.60;;;;;;4844530;29;20058;-93
2023/11/03 09:05:14;;;;;;;7.75;2.85;;;15.20;72.00;;;;;;4859525;29;20054;-93
2023/11/03 09:07:43;;;;;;;7.90;3.05;;;15.20;72.50;;;;;;4846303;29;20054;-94
2023/11/03 09:10:11;;;;;;;5.88;2.83;;;15.20;72.60;;;;;;4834043;29;20050;-94
2023/11/03 09:12:42;;;;;;;7.47;3.60;;;15.20;72.50;;;;;;4844299;29;20501;-94
2023/11/03 09:15:10;;;;;;;7.13;3.07;;;15.20;72.40;;;;;;4859442;29;20038;-94
2023/11/03 09:17:37;;;;;;;7.57;2.90;;;15.30;72.80;;;;;;4859802;29;20050;-94
2023/11/03 09:20:07;;;;;;;7.97;3.08;;;15.30;71.60;;;;;;4844340;29;20078;-94
2023/11/03 09:22:34;;;;;;;7.03;2.90;;;15.30;71.90;;;;;;4844083;29;20050;-94
2023/11/03 09:25:05;;;;;;;5.50;2.60;;;15.30;72.50;;;;;;4859229;29;20058;-94
2023/11/03 09:27:33;;;;;;;5.53;2.70;;;15.40;72.70;;;;;;4857152;29;20078;-94
2023/11/03 09:30:04;;;;;;;5.22;2.38;;;15.50;73.70;;;;;;4859348;29;20532;-93
2023/11/03 09:32:32;;;;;;;4.43;2.33;;;15.50;72.60;;;;;;4844023;29;20042;-94
2023/11/03 09:35:00;;;;;;;5.60;2.40;;;15.50;73.10;;;;;;4844166;29;20041;-94
2023/11/03 09:37:27;;;;;;;5.47;2.50;;;15.50;73.30;;;;;;4859309;29;20054;-94
2023/11/03 09:39:54;;;;;;;7.10;2.50;;;15.50;73.10;;;;;;4859379;29;20408;-94
2023/11/03 09:42:23;;;;;;;7.30;3.63;;;15.50;73.30;;;;;;4859176;29;20050;-95
2023/11/03 09:44:50;;;;;;;9.88;4.93;;;15.50;73.00;;;;;;4848284;29;20043;-94
2023/11/03 09:47:19;;;;;;;8.27;4.65;;;15.40;72.90;;;;;;4851723;29;20058;-94
2023/11/03 09:49:46;;;;;;;5.50;3.10;;;15.40;73.70;;;;;;4861736;29;20073;-95
2023/11/03 09:52:14;;;;;;;5.23;2.30;;;15.50;74.10;;;;;;4834146;29;20141;-95
2023/11/03 09:54:41;;;;;;;4.43;2.28;;;15.40;73.60;;;;;;4843863;29;20053;-94
2023/11/03 09:57:13;;;;;;;4.60;2.10;;;15.50;73.70;;;;;;4859157;29;20053;-95
2023/11/03 09:59:41;;;;;;;5.63;2.55;;;15.40;73.10;;;;;;4843932;29;20053;-95
2023/11/03 10:02:15;;;;;;;6.30;2.40;;;15.30;73.20;;;;;;4843465;29;20054;-94
2023/11/03 10:04:42;;;;;;;4.47;2.23;;;15.30;74.00;;;;;;4843963;29;20554;-94
2023/11/03 10:07:11;;;;;;;5.20;2.40;;;15.30;73.40;;;;;;4843431;29;20057;-95
2023/11/03 10:09:39;;;;;;;4.22;2.08;;;15.30;73.90;;;;;;4858624;29;20060;-95
2023/11/03 10:12:11;;;;;;;4.68;2.30;;;15.20;74.10;;;;;;4858552;29;20073;-94
2023/11/03 10:14:41;;;;;;;6.07;2.70;;;15.20;74.20;;;;;;4843384;29;20171;-94
2023/11/03 10:17:09;;;;;;;6.37;2.50;;;15.10;75.10;;;;;;4858512;29;20065;-95
2023/11/03 10:19:36;;;;;;;7.72;2.65;;;15.00;75.00;;;;;;4858435;29;20085;-94
2023/11/03 10:22:08;;;;;;;5.88;2.40;;;15.00;74.70;;;;;;4858750;29;20053;-95
2023/11/03 10:24:39;;;;;;;6.40;2.67;;;14.80;75.40;;;;;;4858439;29;20505;-94
2023/11/03 10:27:06;;;;;;;6.85;3.05;;;14.80;76.80;;;;;;4858187;29;20065;-94
2023/11/03 10:29:34;;;;;;;8.80;3.07;;;14.70;77.50;;;;;;4858407;29;20138;-94
2023/11/03 10:32:01;;;;;;;6.10;2.83;;;14.70;78.20;;;;;;4858152;29;20069;-94
2023/11/03 10:34:30;;;;;;;6.55;2.60;;;14.60;77.80;;;;;;4842840;29;20145;-94
2023/11/03 10:36:58;;;;;;;6.43;2.90;;;14.50;78.50;;;;;;4827976;29;20046;-94
2023/11/03 10:39:26;;;;;;;6.55;3.00;;;14.50;78.80;;;;;;4842797;29;20042;-94
2023/11/03 10:41:55;;;;;;;5.30;2.37;;;14.40;79.30;;;;;;4843128;29;20065;-95
2023/11/03 10:44:27;;;;;;;5.28;2.47;;;14.40;79.30;;;;;;4843261;29;20061;-94
2023/11/03 10:47:10;;;;;;;6.57;2.70;;;14.20;79.80;;;;;;4842732;29;20106;-94
2023/11/03 10:49:40;;;;;;;7.25;2.80;;;14.20;80.10;;;;;;4842441;29;20558;-94
2023/11/03 10:52:11;;;;;;;8.48;3.40;;;14.20;80.20;;;;;;4842670;29;20042;-95
2023/11/03 10:54:48;;;;;;;7.60;3.10;;;14.20;80.60;;;;;;4842606;29;20140;-94
2023/11/03 10:57:16;;;;;;;14.18;6.95;;;14.30;80.70;;;;;;4842750;29;20111;-94
2023/11/03 11:00:22;;;;;;;14.18;7.25;;;14.40;80.80;;;;;;4842612;29;20516;-94
2023/11/03 11:02:54;;;;;;;22.98;13.77;;;14.50;80.90;;;;;;4841736;29;20065;-94
2023/11/03 11:05:38;;;;;;;22.95;14.27;;;14.50;80.80;;;;;;4842801;29;20235;-94
2023/11/03 11:08:08;;;;;;;24.30;14.70;;;14.60;81.00;;;;;;4842435;29;20061;-93
2023/11/03 11:10:37;;;;;;;18.52;9.80;;;14.80;80.90;;;;;;4842343;29;20054;-94
2023/11/03 11:13:09;;;;;;;14.63;5.95;;;14.80;80.80;;;;;;4857723;29;20454;-94
2023/11/03 11:15:37;;;;;;;9.77;4.72;;;14.80;80.80;;;;;;4857689;29;20050;-94
2023/11/03 11:18:15;;;;;;;9.18;4.95;;;14.80;80.30;;;;;;4842288;29;20046;-94
2023/11/03 11:20:51;;;;;;;8.73;4.97;;;14.80;80.60;;;;;;4857643;29;20535;-93
2023/11/03 11:23:21;;;;;;;8.95;4.22;;;14.70;80.50;;;;;;4857452;29;20046;-94
2023/11/03 11:25:52;;;;;;;7.00;3.63;;;14.70;81.00;;;;;;4841917;29;20054;-93
2023/11/03 11:28:38;;;;;;;7.18;3.17;;;14.80;80.60;;;;;;4842319;29;20086;-94
2023/11/03 11:31:24;;;;;;;7.45;3.38;;;14.60;80.80;;;;;;4841974;29;20054;-93
2023/11/03 11:34:08;;;;;;;7.17;3.10;;;14.50;80.90;;;;;;4841822;29;20140;-94
2023/11/03 11:36:39;;;;;;;5.53;2.65;;;14.50;81.40;;;;;;4857594;29;20102;-93
2023/11/03 11:39:06;;;;;;;7.60;2.83;;;14.40;81.40;;;;;;4857135;29;20099;-93
2023/11/03 11:41:38;;;;;;;6.10;2.65;;;14.30;81.90;;;;;;4857224;29;20063;-94
2023/11/03 11:44:05;;;;;;;6.60;2.67;;;14.40;81.50;;;;;;4857171;29;20069;-93
2023/11/03 11:46:32;;;;;;;6.23;2.27;;;14.40;81.40;;;;;;4841755;29;20064;-93
2023/11/03 11:49:02;;;;;;;5.15;2.40;;;14.40;81.50;;;;;;4857416;29;20149;-93
2023/11/03 11:51:34;;;;;;;6.07;2.05;;;14.40;81.40;;;;;;4856487;29;20501;-94
2023/11/03 11:54:01;;;;;;;3.40;1.70;;;14.30;81.50;;;;;;4845431;29;20043;-93
2023/11/03 11:56:29;;;;;;;3.55;1.83;;;14.20;80.70;;;;;;4857147;29;20046;-94
2023/11/03 11:58:58;;;;;;;2.60;1.43;;;14.30;81.10;;;;;;4841812;29;20094;-93
2023/11/03 12:01:27;;;;;;;3.70;1.88;;;14.30;80.60;;;;;;4856918;29;20073;-93
2023/11/03 12:03:55;;;;;;;3.38;1.50;;;14.20;80.90;;;;;;4856851;29;20058;-93
2023/11/03 12:06:24;;;;;;;5.03;1.55;;;14.20;81.30;;;;;;4855908;29;20573;-93
2023/11/03 12:08:53;;;;;;;3.83;1.67;;;14.20;80.80;;;;;;4856970;29;20156;-93
2023/11/03 12:11:20;;;;;;;3.00;1.40;;;14.10;80.70;;;;;;4841596;29;20052;-94
2023/11/03 12:13:47;;;;;;;4.88;1.42;;;14.10;80.80;;;;;;4858951;29;20042;-94
2023/11/03 12:16:14;;;;;;;4.82;1.48;;;14.00;81.00;;;;;;4877906;29;20045;-94
2023/11/03 12:18:41;;;;;;;3.80;1.55;;;14.00;81.50;;;;;;4846384;29;20053;-94
2023/11/03 12:21:09;;;;;;;3.42;1.50;;;13.90;81.70;;;;;;4862607;29;20075;-93
2023/11/03 12:23:39;;;;;;;3.77;1.60;;;13.90;81.80;;;;;;4861748;29;20054;-93
2023/11/03 12:26:08;;;;;;;5.68;2.47;;;13.90;81.80;;;;;;4844701;29;20069;-94
2023/11/03 12:28:35;;;;;;;6.13;2.58;;;13.90;81.80;;;;;;4860082;29;20050;-94
2023/11/03 12:31:04;;;;;;;6.28;2.42;;;13.90;82.00;;;;;;4859965;29;20034;-93
2023/11/03 12:33:32;;;;;;;8.48;2.92;;;13.80;82.00;;;;;;4845153;29;20078;-93
2023/11/03 12:36:00;;;;;;;4.30;1.50;;;13.80;81.50;;;;;;4858076;29;20463;-93
2023/11/03 12:38:27;;;;;;;4.38;1.83;;;13.70;82.00;;;;;;4836476;29;20056;-93
2023/11/03 12:41:13;;;;;;;5.20;2.00;;;13.60;81.70;;;;;;4850934;29;20098;-94
2023/11/03 12:43:59;;;;;;;5.28;1.58;;;13.60;82.00;;;;;;4859822;29;20050;-93
2023/11/03 12:46:26;;;;;;;5.70;2.17;;;13.50;82.10;;;;;;4844241;29;20106;-93
2023/11/03 12:49:09;;;;;;;5.23;2.10;;;13.50;82.10;;;;;;4859657;29;20064;-93
2023/11/03 12:51:36;;;;;;;7.55;3.17;;;13.60;81.80;;;;;;4860121;29;20052;-93